Time;durP1;ratioP1;P1;durP2;ratioP2;P2;SDS_P1;SDS_P2;PMS_P1;PMS_P2;Temp;Humidity;BMP_temperature;BMP_pressure;BME280_temperature;BME280_humidity;BME280_pressure;Samples;Min_cycle;Max_cycle;Signal;HPM_P1;HPM_P2
2023/02/05 00:01:23;;;;;;;19.27;11.87;;;10.00;99.90;;;;;;4852137;29;20474;-80
2023/02/05 00:03:50;;;;;;;22.40;13.17;;;10.00;99.90;;;;;;4852391;29;20514;-79
2023/02/05 00:06:17;;;;;;;19.07;13.10;;;10.00;99.90;;;;;;4861459;29;21700;-80
2023/02/05 00:08:44;;;;;;;23.27;12.60;;;10.00;99.90;;;;;;4851797;29;20482;-80
2023/02/05 00:11:11;;;;;;;23.53;11.73;;;9.90;99.90;;;;;;4849941;29;20473;-79
2023/02/05 00:13:39;;;;;;;24.73;12.77;;;10.00;99.90;;;;;;4851823;29;20987;-80
2023/02/05 00:16:18;;;;;;;31.77;14.20;;;9.90;99.90;;;;;;4850246;29;20493;-80
2023/02/05 00:18:45;;;;;;;18.50;12.00;;;9.80;99.90;;;;;;4850806;29;20464;-80
2023/02/05 00:21:13;;;;;;;25.63;13.10;;;9.70;99.90;;;;;;4850860;29;20465;-80
2023/02/05 00:23:40;;;;;;;21.00;13.40;;;9.70;99.90;;;;;;4850189;29;20489;-80
2023/02/05 00:26:07;;;;;;;21.63;12.40;;;9.90;99.90;;;;;;4848497;29;20461;-80
2023/02/05 00:28:34;;;;;;;21.90;14.13;;;10.00;99.90;;;;;;4847099;29;21147;-80
2023/02/05 00:31:16;;;;;;;19.90;12.23;;;9.90;99.90;;;;;;4847958;29;20467;-80
2023/02/05 00:33:43;;;;;;;20.57;12.53;;;9.90;99.90;;;;;;4846595;29;20662;-80
2023/02/05 00:36:11;;;;;;;22.43;11.87;;;9.70;99.90;;;;;;4846752;29;20477;-80
2023/02/05 00:38:39;;;;;;;21.77;12.73;;;9.60;99.90;;;;;;4841680;29;20552;-81
2023/02/05 00:41:05;;;;;;;18.00;12.10;;;9.60;99.90;;;;;;4839905;29;20469;-79
2023/02/05 00:43:32;;;;;;;22.23;12.33;;;9.90;99.90;;;;;;4844891;29;20482;-79
2023/02/05 00:45:59;;;;;;;29.73;14.00;;;9.90;99.90;;;;;;4844751;29;20511;-80
2023/02/05 00:48:26;;;;;;;20.80;12.83;;;9.80;99.90;;;;;;4844232;29;20974;-79
2023/02/05 00:50:52;;;;;;;34.50;13.77;;;9.60;99.90;;;;;;4846704;29;20514;-79
2023/02/05 00:53:20;;;;;;;25.50;13.40;;;9.70;99.90;;;;;;4846117;29;20561;-79
2023/02/05 00:55:47;;;;;;;20.53;13.47;;;9.70;99.90;;;;;;4850349;29;20500;-80
2023/02/05 00:58:14;;;;;;;21.97;13.10;;;9.70;99.90;;;;;;4846817;29;20501;-79
2023/02/05 01:00:41;;;;;;;25.27;13.53;;;9.70;99.90;;;;;;4849392;29;20809;-79
2023/02/05 01:03:08;;;;;;;20.13;13.53;;;9.50;99.90;;;;;;4846353;29;20492;-79
2023/02/05 01:05:36;;;;;;;30.27;14.17;;;9.60;99.90;;;;;;4840502;29;20500;-79
2023/02/05 01:08:05;;;;;;;24.53;13.30;;;9.60;99.90;;;;;;4857336;29;21039;-79
2023/02/05 01:10:32;;;;;;;22.83;12.23;;;9.50;99.90;;;;;;4845249;29;20505;-79
2023/02/05 01:12:58;;;;;;;23.03;13.70;;;9.50;99.90;;;;;;4839123;29;20485;-79
2023/02/05 01:15:25;;;;;;;20.00;13.53;;;9.50;99.90;;;;;;4839733;29;20756;-80
2023/02/05 01:17:52;;;;;;;22.63;13.33;;;9.40;99.90;;;;;;4843361;29;20457;-79
2023/02/05 01:20:19;;;;;;;28.30;13.97;;;9.30;99.90;;;;;;4836329;29;20466;-80
2023/02/05 01:22:46;;;;;;;22.60;12.90;;;9.30;99.90;;;;;;4850537;29;20549;-78
2023/02/05 01:25:12;;;;;;;22.20;12.60;;;9.20;99.90;;;;;;4855700;29;20503;-78
2023/02/05 01:27:39;;;;;;;21.53;13.87;;;9.10;99.90;;;;;;4851027;29;20521;-78
2023/02/05 01:30:06;;;;;;;20.77;13.93;;;9.30;99.90;;;;;;4856628;29;20461;-81
2023/02/05 01:32:33;;;;;;;25.33;13.17;;;9.50;99.90;;;;;;4843124;29;20572;-79
2023/02/05 01:35:00;;;;;;;33.13;14.40;;;9.40;99.90;;;;;;4843844;29;20495;-79
2023/02/05 01:37:26;;;;;;;19.23;13.70;;;9.30;99.90;;;;;;4843654;29;20491;-79
2023/02/05 01:39:53;;;;;;;20.13;14.00;;;9.30;99.90;;;;;;4845270;29;20466;-79
2023/02/05 01:42:29;;;;;;;26.20;14.90;;;9.30;99.90;;;;;;4844330;29;20496;-80
2023/02/05 01:45:21;;;;;;;28.90;13.30;;;9.30;99.90;;;;;;4844884;29;21068;-79
2023/02/05 01:47:48;;;;;;;19.57;13.10;;;9.10;99.90;;;;;;4846511;29;21040;-80
2023/02/05 01:50:17;;;;;;;18.93;13.03;;;9.00;99.90;;;;;;4847177;29;20457;-79
2023/02/05 01:52:44;;;;;;;28.27;14.67;;;9.10;99.90;;;;;;4855212;29;20516;-79
2023/02/05 01:55:12;;;;;;;25.83;14.90;;;9.30;99.90;;;;;;4850123;29;20579;-79
2023/02/05 01:57:39;;;;;;;21.20;13.83;;;9.40;99.90;;;;;;4844055;29;20839;-80
2023/02/05 02:00:07;;;;;;;24.10;14.40;;;9.40;99.90;;;;;;4843253;29;20967;-80
2023/02/05 02:02:36;;;;;;;21.43;13.27;;;9.30;99.90;;;;;;4845120;29;20493;-80
2023/02/05 02:05:09;;;;;;;20.67;14.60;;;9.20;99.90;;;;;;4845305;29;20564;-80
2023/02/05 02:07:37;;;;;;;29.73;15.33;;;9.30;99.90;;;;;;4840599;29;20560;-80
2023/02/05 02:10:06;;;;;;;27.00;14.37;;;9.40;99.90;;;;;;4849353;29;20465;-77
2023/02/05 02:12:36;;;;;;;25.73;14.97;;;9.30;99.90;;;;;;4844078;29;20493;-79
2023/02/05 02:15:09;;;;;;;38.20;15.47;;;9.20;99.90;;;;;;4843349;29;20548;-80
2023/02/05 02:17:39;;;;;;;26.90;14.20;;;9.20;99.90;;;;;;4851276;29;20472;-79
2023/02/05 02:20:13;;;;;;;26.90;14.73;;;9.20;99.90;;;;;;4849539;29;20991;-79
2023/02/05 02:22:55;;;;;;;30.87;15.60;;;9.10;99.90;;;;;;4850067;29;20489;-79
2023/02/05 02:26:09;;;;;;;25.97;14.90;;;9.00;99.90;;;;;;4844140;29;20939;-82
2023/02/05 02:28:53;;;;;;;21.10;14.07;;;8.70;99.90;;;;;;4844952;29;20534;-79
2023/02/05 02:31:30;;;;;;;29.40;14.20;;;8.60;99.90;;;;;;4852164;29;20560;-79
2023/02/05 02:34:28;;;;;;;34.30;16.00;;;8.60;99.90;;;;;;4848027;29;21052;-79
2023/02/05 02:37:13;;;;;;;21.90;13.33;;;8.90;99.90;;;;;;4855749;29;21588;-80
2023/02/05 02:39:59;;;;;;;22.20;14.27;;;9.10;99.90;;;;;;4853151;29;20445;-80
2023/02/05 02:42:50;;;;;;;27.50;14.60;;;9.00;99.90;;;;;;4850417;29;20481;-80
2023/02/05 02:45:20;;;;;;;23.60;14.07;;;8.90;99.90;;;;;;4859893;29;20468;-80
2023/02/05 02:47:52;;;;;;;33.23;14.80;;;8.90;99.90;;;;;;4850436;29;20457;-80
2023/02/05 02:50:31;;;;;;;27.67;14.00;;;8.70;99.90;;;;;;4857719;29;20470;-81
2023/02/05 02:53:03;;;;;;;21.03;13.80;;;8.80;99.90;;;;;;4852102;29;20496;-80
2023/02/05 02:55:36;;;;;;;26.80;14.00;;;8.90;99.90;;;;;;4843213;29;20500;-80
2023/02/05 02:58:08;;;;;;;20.80;14.23;;;8.90;99.90;;;;;;4846471;29;20497;-81
2023/02/05 03:00:37;;;;;;;23.30;13.20;;;9.00;99.90;;;;;;4859007;29;20469;-80
2023/02/05 03:03:06;;;;;;;23.93;13.30;;;8.80;99.90;;;;;;4845432;29;20562;-81
2023/02/05 03:05:35;;;;;;;27.40;15.27;;;8.70;99.90;;;;;;4815501;29;22179;-80
2023/02/05 03:08:18;;;;;;;24.67;14.10;;;8.80;99.90;;;;;;4813529;29;20505;-81
2023/02/05 03:11:12;;;;;;;17.33;12.37;;;8.70;99.90;;;;;;4808138;29;20461;-80
2023/02/05 03:13:39;;;;;;;23.00;14.07;;;9.00;99.90;;;;;;4823983;29;20493;-80
2023/02/05 03:16:06;;;;;;;25.53;13.23;;;9.20;99.90;;;;;;4815989;29;21066;-80
2023/02/05 03:18:33;;;;;;;23.10;13.40;;;9.30;99.90;;;;;;4816648;29;20469;-79
2023/02/05 03:21:04;;;;;;;20.93;13.57;;;9.40;99.90;;;;;;4830625;29;20569;-79
2023/02/05 03:23:31;;;;;;;22.30;13.87;;;9.50;99.90;;;;;;4813668;29;20560;-80
2023/02/05 03:25:58;;;;;;;29.73;15.00;;;9.40;99.90;;;;;;4824513;29;20477;-79
2023/02/05 03:28:24;;;;;;;18.70;12.23;;;9.40;99.90;;;;;;4853205;29;20508;-79
2023/02/05 03:31:06;;;;;;;27.03;15.37;;;9.40;99.90;;;;;;4853773;29;20573;-81
2023/02/05 03:33:33;;;;;;;26.63;13.43;;;9.30;99.90;;;;;;4843987;29;20527;-80
2023/02/05 03:36:24;;;;;;;19.27;12.10;;;9.30;99.90;;;;;;4845087;29;20521;-80
2023/02/05 03:38:56;;;;;;;24.80;13.60;;;9.40;99.90;;;;;;4841572;29;20549;-80
2023/02/05 03:41:55;;;;;;;19.03;12.00;;;9.10;99.90;;;;;;4852215;29;20458;-79
2023/02/05 03:44:40;;;;;;;26.20;12.13;;;9.20;99.90;;;;;;4857365;29;20473;-80
2023/02/05 03:47:18;;;;;;;25.07;13.10;;;9.30;99.90;;;;;;4846009;29;20444;-80
2023/02/05 03:50:17;;;;;;;34.03;13.40;;;9.20;99.90;;;;;;4847855;29;20525;-79
2023/02/05 03:52:56;;;;;;;22.83;11.70;;;9.40;99.90;;;;;;4846067;29;20485;-79
2023/02/05 03:55:28;;;;;;;21.23;12.17;;;9.40;99.90;;;;;;4846364;29;20594;-79
2023/02/05 03:58:27;;;;;;;18.17;11.13;;;9.30;99.90;;;;;;4845518;29;20580;-79
2023/02/05 04:00:53;;;;;;;24.73;12.73;;;9.30;99.90;;;;;;4844930;29;20488;-81
2023/02/05 04:03:20;;;;;;;22.60;12.27;;;9.50;99.90;;;;;;4846044;29;21210;-79
2023/02/05 04:05:47;;;;;;;22.73;12.10;;;9.50;99.90;;;;;;4847125;29;20545;-78
2023/02/05 04:08:14;;;;;;;24.40;14.03;;;9.40;99.90;;;;;;4857405;29;20951;-80
2023/02/05 04:10:40;;;;;;;27.30;12.90;;;9.30;99.90;;;;;;4845632;29;20469;-79
2023/02/05 04:13:07;;;;;;;23.17;12.77;;;9.40;99.90;;;;;;4841342;29;20501;-79
2023/02/05 04:15:33;;;;;;;22.10;13.83;;;9.40;99.90;;;;;;4843581;29;20536;-80
2023/02/05 04:18:01;;;;;;;22.90;13.20;;;9.50;99.90;;;;;;4848025;29;20467;-79
2023/02/05 04:20:27;;;;;;;27.17;13.50;;;9.40;99.90;;;;;;4858083;29;20510;-79
2023/02/05 04:23:03;;;;;;;25.23;13.83;;;9.40;99.90;;;;;;4856099;23;20511;-80
2023/02/05 04:26:19;;;;;;;20.57;12.10;;;9.30;99.90;;;;;;4859545;29;20453;-79
2023/02/05 04:29:16;;;;;;;;;;;;;;;;;;;;;
2023/02/05 04:31:48;;;;;;;19.50;13.50;;;9.20;99.90;;;;;;4857544;29;20588;-80
2023/02/05 04:34:30;;;;;;;25.27;14.17;;;9.20;99.90;;;;;;4853031;29;20531;-79
2023/02/05 04:37:20;;;;;;;28.43;14.47;;;9.20;99.90;;;;;;4855028;29;20468;-79
2023/02/05 04:39:47;;;;;;;31.50;15.00;;;9.30;99.90;;;;;;4855073;29;20460;-79
2023/02/05 04:42:21;;;;;;;26.97;13.30;;;9.20;99.90;;;;;;4864747;29;20468;-79
2023/02/05 04:44:53;;;;;;;23.60;14.20;;;9.20;99.90;;;;;;4858617;29;20472;-80
2023/02/05 04:47:32;;;;;;;28.60;14.27;;;9.10;99.90;;;;;;4870771;29;20465;-80
2023/02/05 04:50:17;;;;;;;24.63;13.17;;;9.20;99.90;;;;;;4857085;29;20478;-80
2023/02/05 04:52:45;;;;;;;23.67;13.50;;;9.20;99.90;;;;;;4852908;29;20472;-79
2023/02/05 04:55:21;;;;;;;23.47;12.07;;;9.30;99.90;;;;;;4856049;29;20492;-80
2023/02/05 04:58:20;;;;;;;24.20;13.00;;;9.30;99.90;;;;;;4872242;29;20452;-79
2023/02/05 05:01:30;;;;;;;26.73;13.73;;;9.40;99.90;;;;;;4870253;29;20509;-80
2023/02/05 05:04:17;;;;;;;28.70;13.60;;;9.40;99.90;;;;;;4858226;29;20803;-80
2023/02/05 05:06:52;;;;;;;22.43;12.43;;;9.40;99.90;;;;;;4856605;29;20542;-80
2023/02/05 05:09:23;;;;;;;21.50;12.77;;;9.30;99.90;;;;;;4859799;29;20527;-79
2023/02/05 05:12:00;;;;;;;23.33;12.63;;;9.20;99.90;;;;;;4857003;29;20718;-80
2023/02/05 05:14:32;;;;;;;23.40;12.00;;;9.00;99.90;;;;;;4856792;29;20459;-79
2023/02/05 05:17:11;;;;;;;21.27;12.93;;;8.90;99.90;;;;;;4868510;29;20500;-79
2023/02/05 05:19:42;;;;;;;23.30;12.53;;;8.90;99.90;;;;;;4848208;29;20522;-80
2023/02/05 05:22:14;;;;;;;25.67;14.33;;;9.10;99.90;;;;;;4842683;29;20499;-80
2023/02/05 05:24:57;;;;;;;23.30;14.33;;;9.50;99.90;;;;;;4873284;29;20495;-80
2023/02/05 05:27:33;;;;;;;21.47;13.10;;;9.60;99.90;;;;;;4875120;29;20508;-79
2023/02/05 05:30:11;;;;;;;23.83;13.20;;;9.40;99.90;;;;;;4860671;29;20483;-79
2023/02/05 05:32:49;;;;;;;24.70;14.27;;;9.20;99.90;;;;;;4865844;29;21148;-79
2023/02/05 05:35:19;;;;;;;21.33;12.37;;;9.10;99.90;;;;;;4864071;29;20480;-81
2023/02/05 05:38:02;;;;;;;23.80;15.00;;;9.00;99.90;;;;;;4873747;29;20520;-79
2023/02/05 05:46:07;;;;;;;25.43;13.90;;;9.30;99.90;;;;;;4858289;29;20464;-79
2023/02/05 05:48:37;;;;;;;22.63;13.50;;;9.50;99.90;;;;;;4858889;29;21188;-79
2023/02/05 05:51:07;;;;;;;25.83;15.13;;;9.30;99.90;;;;;;4856664;29;20468;-80
2023/02/05 05:53:36;;;;;;;29.93;15.23;;;9.20;99.90;;;;;;4860416;29;20479;-80
2023/02/05 05:56:06;;;;;;;26.37;13.50;;;9.20;99.90;;;;;;4843256;29;20493;-80
2023/02/05 05:58:36;;;;;;;25.20;15.10;;;9.10;99.90;;;;;;4873087;29;20471;-80
2023/02/05 06:01:09;;;;;;;24.10;15.20;;;9.10;99.90;;;;;;4863321;29;20460;-79
2023/02/05 06:03:47;;;;;;;25.00;15.10;;;9.10;99.90;;;;;;4860895;29;20528;-79
2023/02/05 06:06:18;;;;;;;28.97;15.50;;;9.10;99.90;;;;;;4848641;29;20501;-80
2023/02/05 06:08:55;;;;;;;27.90;15.10;;;9.00;99.90;;;;;;4868083;29;20476;-80
2023/02/05 06:11:23;;;;;;;31.87;18.40;;;9.00;99.90;;;;;;4875354;29;20471;-79
2023/02/05 06:13:55;;;;;;;34.83;17.47;;;9.10;99.90;;;;;;4857071;29;20868;-79
2023/02/05 06:16:24;;;;;;;26.07;15.30;;;9.10;99.90;;;;;;4861188;29;20487;-79
2023/02/05 06:18:56;;;;;;;23.43;15.30;;;9.00;99.90;;;;;;4860149;29;20957;-79
2023/02/05 06:21:30;;;;;;;26.17;16.13;;;9.00;99.90;;;;;;4858936;29;20460;-78
2023/02/05 06:24:32;;;;;;;23.03;14.93;;;9.00;99.90;;;;;;4857900;29;21130;-80
2023/02/05 06:27:01;;;;;;;23.77;15.33;;;9.00;99.90;;;;;;4856692;29;20915;-79
2023/02/05 06:29:30;;;;;;;24.37;15.13;;;9.00;99.90;;;;;;4860612;29;20468;-80
2023/02/05 06:32:00;;;;;;;25.50;14.77;;;9.00;99.90;;;;;;4860436;29;20556;-81
2023/02/05 06:34:27;;;;;;;22.30;13.87;;;9.00;99.90;;;;;;4859442;29;20490;-80
2023/02/05 06:36:55;;;;;;;24.30;15.00;;;9.00;99.90;;;;;;4860809;29;20496;-81
2023/02/05 06:39:30;;;;;;;28.87;16.13;;;9.00;99.90;;;;;;4859792;29;20480;-80
2023/02/05 06:42:12;;;;;;;23.30;13.90;;;9.00;99.90;;;;;;4867814;29;20499;-81
2023/02/05 06:44:39;;;;;;;23.13;14.30;;;9.00;99.90;;;;;;4875596;29;20551;-80
2023/02/05 06:47:13;;;;;;;26.63;17.20;;;9.00;99.90;;;;;;4872603;29;20461;-80
2023/02/05 06:49:40;;;;;;;27.20;16.60;;;9.00;99.90;;;;;;4868072;29;20465;-80
2023/02/05 06:52:11;;;;;;;20.37;13.00;;;9.00;99.90;;;;;;4855128;29;20484;-80
2023/02/05 06:54:51;;;;;;;24.33;15.73;;;9.00;99.90;;;;;;4852855;29;20540;-79
2023/02/05 06:57:30;;;;;;;24.70;14.80;;;9.00;99.90;;;;;;4853952;29;22167;-80
2023/02/05 07:00:06;;;;;;;27.10;17.10;;;9.00;99.90;;;;;;4863142;29;20464;-80
2023/02/05 07:02:43;;;;;;;27.70;15.47;;;8.90;99.90;;;;;;4861653;29;20491;-80
2023/02/05 07:05:18;;;;;;;27.73;15.33;;;8.90;99.90;;;;;;4856679;29;20472;-79
2023/02/05 07:07:51;;;;;;;22.30;15.27;;;9.00;99.90;;;;;;4858365;29;20548;-80
2023/02/05 07:10:28;;;;;;;24.90;16.70;;;9.00;99.90;;;;;;4856323;29;20900;-80
2023/02/05 07:12:55;;;;;;;27.47;17.27;;;9.00;99.90;;;;;;4858972;29;20513;-80
2023/02/05 07:15:25;;;;;;;23.57;15.43;;;9.00;99.90;;;;;;4851202;29;20480;-81
2023/02/05 07:17:52;;;;;;;26.17;16.90;;;9.00;99.90;;;;;;4872075;29;20475;-80
2023/02/05 07:20:24;;;;;;;24.63;16.00;;;9.10;99.90;;;;;;4864224;29;23545;-80
2023/02/05 07:22:54;;;;;;;27.37;18.00;;;9.10;99.90;;;;;;4869411;29;20485;-80
2023/02/05 07:25:34;;;;;;;23.57;14.83;;;9.10;99.90;;;;;;4858331;29;20476;-81
2023/02/05 07:28:06;;;;;;;28.60;16.80;;;9.10;99.90;;;;;;4858005;29;20465;-81
2023/02/05 07:30:39;;;;;;;25.23;15.80;;;9.10;99.90;;;;;;4857519;29;20467;-81
2023/02/05 07:33:12;;;;;;;26.63;16.13;;;9.10;99.90;;;;;;4859504;29;20484;-81
2023/02/05 07:35:39;;;;;;;23.50;16.07;;;9.10;99.90;;;;;;4860665;29;20520;-80
2023/02/05 07:38:09;;;;;;;22.53;15.03;;;9.10;99.90;;;;;;4857610;29;20470;-80
2023/02/05 07:40:36;;;;;;;23.80;15.53;;;9.00;99.90;;;;;;4830677;29;20457;-80
2023/02/05 07:43:17;;;;;;;24.57;15.80;;;9.00;99.90;;;;;;4841692;29;20489;-80
2023/02/05 07:45:57;;;;;;;23.73;15.77;;;9.10;99.90;;;;;;4863267;29;20465;-79
2023/02/05 07:48:26;;;;;;;23.87;16.87;;;9.00;99.90;;;;;;4867109;29;20685;-79
2023/02/05 07:51:05;;;;;;;22.97;15.87;;;9.00;99.90;;;;;;4873307;29;20462;-77
2023/02/05 07:53:37;;;;;;;24.40;14.20;;;9.00;99.90;;;;;;4856872;29;21352;-80
2023/02/05 07:56:07;;;;;;;21.30;15.67;;;9.00;99.90;;;;;;4868544;29;20477;-80
2023/02/05 07:58:39;;;;;;;21.80;14.67;;;9.00;99.90;;;;;;4864940;29;20470;-81
2023/02/05 08:01:06;;;;;;;23.60;14.43;;;9.00;99.90;;;;;;4873606;29;20452;-80
2023/02/05 08:03:36;;;;;;;20.10;14.97;;;9.00;99.90;;;;;;4870061;29;20488;-78
2023/02/05 08:06:07;;;;;;;23.47;15.57;;;8.90;99.90;;;;;;4865619;29;20485;-79
2023/02/05 08:08:48;;;;;;;21.30;14.07;;;9.00;99.90;;;;;;4864368;29;20465;-79
2023/02/05 08:11:18;;;;;;;20.90;14.57;;;9.00;99.90;;;;;;4863665;29;20502;-80
2023/02/05 08:13:56;;;;;;;21.87;13.77;;;8.90;99.90;;;;;;4861531;29;20477;-80
2023/02/05 08:16:35;;;;;;;20.07;15.00;;;8.90;99.90;;;;;;4864030;29;20501;-81
2023/02/05 08:19:06;;;;;;;22.93;14.47;;;8.90;99.90;;;;;;4858315;29;20465;-81
2023/02/05 08:21:45;;;;;;;19.47;13.80;;;8.90;99.90;;;;;;4863056;29;20470;-80
2023/02/05 08:24:47;;;;;;;31.43;16.87;;;8.90;99.90;;;;;;4872486;29;20469;-81
2023/02/05 08:27:17;;;;;;;20.73;14.50;;;9.00;99.90;;;;;;4859136;29;20468;-81
2023/02/05 08:29:57;;;;;;;19.33;14.20;;;8.90;99.90;;;;;;4871240;29;20469;-79
2023/02/05 08:32:30;;;;;;;18.03;11.77;;;8.90;99.90;;;;;;4874354;29;20488;-80
2023/02/05 08:35:07;;;;;;;16.67;13.23;;;8.90;99.90;;;;;;4891012;29;20461;-79
2023/02/05 08:37:41;;;;;;;15.23;12.07;;;8.90;99.90;;;;;;4872454;29;20493;-78
2023/02/05 08:40:16;;;;;;;18.00;14.30;;;8.90;99.90;;;;;;4862149;29;20468;-80
2023/02/05 08:42:56;;;;;;;18.27;12.40;;;8.90;99.90;;;;;;4861368;29;21544;-79
2023/02/05 08:45:48;;;;;;;19.67;13.77;;;8.90;99.90;;;;;;4873719;29;20560;-80
2023/02/05 08:48:18;;;;;;;19.40;12.97;;;8.90;99.90;;;;;;4876852;29;20936;-80
2023/02/05 08:50:48;;;;;;;19.80;13.87;;;8.90;99.90;;;;;;4883290;29;20504;-80
2023/02/05 08:53:17;;;;;;;23.10;14.47;;;8.90;99.90;;;;;;4899246;29;20631;-80
2023/02/05 08:55:57;;;;;;;20.73;13.87;;;8.90;99.90;;;;;;4887292;29;20495;-80
2023/02/05 08:58:27;;;;;;;17.30;12.70;;;8.90;99.90;;;;;;4891438;29;20467;-81
2023/02/05 09:01:13;;;;;;;16.73;12.27;;;8.90;99.90;;;;;;4887161;29;20453;-80
2023/02/05 09:03:57;;;;;;;16.70;11.30;;;8.80;99.90;;;;;;4873597;29;20480;-80
2023/02/05 09:06:42;;;;;;;13.57;9.57;;;8.90;99.90;;;;;;4879178;29;20563;-80
2023/02/05 09:09:25;;;;;;;12.00;8.63;;;8.80;99.90;;;;;;4865307;29;20461;-80
2023/02/05 09:11:57;;;;;;;10.47;9.20;;;8.90;99.90;;;;;;4880632;29;21050;-80
2023/02/05 09:14:26;;;;;;;8.67;6.47;;;8.80;99.90;;;;;;4876433;29;20521;-80
2023/02/05 09:16:55;;;;;;;10.07;7.10;;;8.80;99.90;;;;;;4859446;29;20588;-81
2023/02/05 09:19:28;;;;;;;6.07;4.40;;;8.80;99.90;;;;;;4863633;29;20480;-80
2023/02/05 09:21:56;;;;;;;5.70;4.20;;;8.90;99.90;;;;;;4872865;29;20468;-79
2023/02/05 09:24:46;;;;;;;5.07;4.07;;;8.90;99.90;;;;;;4857668;29;20694;-80
2023/02/05 09:27:17;;;;;;;4.83;3.40;;;8.90;99.90;;;;;;4856854;29;20495;-80
2023/02/05 09:29:47;;;;;;;3.23;2.87;;;9.00;99.90;;;;;;4869577;29;20471;-80
2023/02/05 09:32:24;;;;;;;4.90;3.90;;;9.00;99.90;;;;;;4862679;29;20499;-80
2023/02/05 09:35:06;;;;;;;3.33;2.87;;;8.80;99.90;;;;;;4874961;29;20613;-80
2023/02/05 09:37:38;;;;;;;4.87;2.70;;;8.80;99.90;;;;;;4866488;29;20533;-79
2023/02/05 09:40:33;;;;;;;3.00;2.70;;;8.70;99.90;;;;;;4853689;29;20919;-79
2023/02/05 09:43:31;;;;;;;3.77;3.47;;;8.70;99.90;;;;;;4874680;29;20533;-79
2023/02/05 09:46:36;;;;;;;3.37;2.57;;;8.60;99.90;;;;;;4869294;29;20476;-81
2023/02/05 09:49:17;;;;;;;2.93;2.63;;;8.60;99.90;;;;;;4863047;29;20882;-80
2023/02/05 09:51:48;;;;;;;3.03;2.40;;;8.60;99.90;;;;;;4865389;29;20473;-80
2023/02/05 09:54:27;;;;;;;6.13;3.20;;;8.60;99.90;;;;;;4870549;29;20461;-79
2023/02/05 09:57:02;;;;;;;3.00;2.67;;;9.00;99.90;;;;;;4864438;29;20488;-81
2023/02/05 09:59:30;;;;;;;4.13;2.80;;;9.00;99.90;;;;;;4874531;29;20473;-81
2023/02/05 10:02:13;;;;;;;3.13;2.57;;;8.80;99.90;;;;;;4855185;29;20468;-80
2023/02/05 10:04:40;;;;;;;2.40;2.20;;;8.70;99.90;;;;;;4857922;29;20567;-79
2023/02/05 10:07:29;;;;;;;6.37;2.53;;;8.80;99.90;;;;;;4873726;29;20465;-81
2023/02/05 10:10:19;;;;;;;2.47;2.27;;;8.80;99.90;;;;;;4871619;29;20467;-80
2023/02/05 10:13:20;;;;;;;2.90;2.30;;;8.90;99.90;;;;;;4857426;29;20495;-80
2023/02/05 10:16:15;;;;;;;3.40;2.90;;;8.90;99.90;;;;;;4874576;29;20475;-80
2023/02/05 10:19:05;;;;;;;3.10;2.50;;;8.90;99.90;;;;;;4860971;29;21026;-81
2023/02/05 10:27:17;;;;;;;6.30;2.10;;;8.80;99.90;;;;;;4865082;23;21150;-81
2023/02/05 10:30:19;;;;;;;1.93;1.70;;;8.70;99.90;;;;;;4831957;29;20565;-80
2023/02/05 10:37:42;;;;;;;;;;;;;;;;;;;;;
2023/02/05 10:41:29;;;;;;;;;;;;;;;;;;;;;
2023/02/05 10:44:25;;;;;;;4.13;1.90;;;8.80;99.90;;;;;;4858266;23;20580;-79
2023/02/05 10:50:43;;;;;;;3.80;1.10;;;8.70;99.90;;;;;;4849835;29;20521;-81
2023/02/05 10:53:30;;;;;;;2.10;1.10;;;8.70;99.90;;;;;;4858226;29;20479;-81
2023/02/05 10:56:14;;;;;;;4.93;1.50;;;8.70;99.90;;;;;;4879527;29;20460;-79
2023/02/05 10:59:12;;;;;;;2.70;1.30;;;8.70;99.90;;;;;;4881309;29;20464;-80
2023/02/05 11:01:54;;;;;;;3.97;1.40;;;8.70;99.90;;;;;;4881789;29;20851;-80
2023/02/05 11:04:46;;;;;;;5.33;1.87;;;8.70;99.90;;;;;;4885664;29;20551;-81
2023/02/05 11:07:31;;;;;;;4.83;1.60;;;8.60;99.90;;;;;;4868979;29;20500;-82
2023/02/05 11:10:21;;;;;;;4.60;2.20;;;8.70;99.90;;;;;;4885341;29;21163;-80
2023/02/05 11:13:18;;;;;;;3.10;1.13;;;8.70;99.90;;;;;;4888034;29;20480;-80
2023/02/05 11:16:09;;;;;;;2.30;1.20;;;8.60;99.90;;;;;;4867414;29;20481;-80
2023/02/05 11:18:47;;;;;;;4.60;1.20;;;8.70;99.90;;;;;;4843302;29;20492;-82
2023/02/05 11:21:17;;;;;;;3.43;1.87;;;8.90;99.90;;;;;;4844425;29;21178;-80
2023/02/05 11:24:01;;;;;;;5.87;2.10;;;8.70;99.90;;;;;;4840788;29;20489;-81
2023/02/05 11:26:39;;;;;;;1.77;1.30;;;8.80;99.90;;;;;;4861638;29;20463;-81
2023/02/05 11:29:23;;;;;;;2.40;1.10;;;8.70;99.90;;;;;;4852526;29;20500;-80
2023/02/05 11:31:56;;;;;;;4.33;1.07;;;8.70;99.90;;;;;;4853698;29;20482;-80
2023/02/05 11:34:31;;;;;;;4.93;1.20;;;8.70;99.90;;;;;;4853400;29;20886;-80
2023/02/05 11:37:07;;;;;;;1.97;1.33;;;8.70;99.90;;;;;;4845846;29;20493;-81
2023/02/05 11:39:40;;;;;;;3.03;1.37;;;8.70;99.90;;;;;;4848648;29;20469;-79
2023/02/05 11:42:21;;;;;;;5.13;1.40;;;8.70;99.90;;;;;;4858103;29;20485;-80
2023/02/05 11:45:25;;;;;;;4.23;1.50;;;8.80;99.90;;;;;;4857651;29;20541;-81
2023/02/05 11:47:54;;;;;;;5.30;1.90;;;8.80;99.90;;;;;;4844206;29;20545;-81
2023/02/05 11:50:28;;;;;;;5.40;2.03;;;8.80;99.90;;;;;;4844244;29;20537;-81
2023/02/05 11:53:13;;;;;;;4.83;1.53;;;8.70;99.90;;;;;;4846355;29;20625;-80
2023/02/05 11:55:43;;;;;;;10.53;2.17;;;8.60;99.90;;;;;;4846966;29;20460;-79
2023/02/05 11:58:30;;;;;;;6.80;1.47;;;8.70;99.90;;;;;;4844948;29;20496;-81
2023/02/05 12:01:32;;;;;;;5.30;1.90;;;8.70;99.90;;;;;;4844822;29;20553;-81
2023/02/05 12:04:20;;;;;;;4.87;1.33;;;8.70;99.90;;;;;;4847859;29;20481;-81
2023/02/05 12:07:12;;;;;;;3.03;1.27;;;8.70;99.90;;;;;;4861051;29;20477;-81
2023/02/05 12:09:43;;;;;;;3.77;1.63;;;8.60;99.90;;;;;;4856364;29;20473;-80
2023/02/05 12:12:42;;;;;;;7.23;1.70;;;8.70;99.90;;;;;;4846228;29;20489;-80
2023/02/05 12:15:23;;;;;;;4.77;1.73;;;8.70;99.90;;;;;;4843655;29;20453;-80
2023/02/05 12:18:14;;;;;;;4.37;2.30;;;8.80;99.90;;;;;;4842489;29;20607;-80
2023/02/05 12:20:57;;;;;;;5.50;2.40;;;8.70;99.90;;;;;;4842113;29;20461;-82
2023/02/05 12:23:58;;;;;;;5.13;1.80;;;8.80;99.90;;;;;;4841967;29;20480;-80
2023/02/05 12:26:38;;;;;;;8.93;3.07;;;8.70;99.90;;;;;;4853676;29;20501;-80
2023/02/05 12:29:55;;;;;;;10.83;3.80;;;8.70;99.90;;;;;;4837382;29;20966;-80
2023/02/05 12:32:49;;;;;;;4.30;2.47;;;8.80;99.90;;;;;;4852738;29;21011;-80
2023/02/05 12:36:03;;;;;;;9.40;2.67;;;8.80;99.90;;;;;;4844281;29;20480;-80
2023/02/05 12:39:09;;;;;;;6.97;2.73;;;8.70;99.90;;;;;;4844245;29;20513;-80
2023/02/05 12:41:55;;;;;;;10.93;2.90;;;8.70;99.90;;;;;;4843384;29;20568;-80
2023/02/05 12:44:46;;;;;;;7.43;3.17;;;8.70;99.90;;;;;;4844942;29;20995;-79
2023/02/05 12:47:48;;;;;;;7.93;3.80;;;8.60;99.90;;;;;;4848182;29;20460;-81
2023/02/05 12:50:43;;;;;;;7.50;3.00;;;8.70;99.90;;;;;;4857495;29;20465;-80
2023/02/05 12:53:32;;;;;;;6.40;2.93;;;8.60;99.90;;;;;;4874559;29;20760;-80
2023/02/05 12:56:17;;;;;;;9.53;2.80;;;8.60;99.90;;;;;;4860404;29;20458;-80
2023/02/05 12:58:49;;;;;;;9.47;5.43;;;8.70;99.90;;;;;;4845637;29;20507;-81
2023/02/05 13:01:41;;;;;;;5.63;3.73;;;8.80;99.90;;;;;;4848375;29;20469;-80
2023/02/05 13:04:38;;;;;;;8.13;2.97;;;8.70;99.90;;;;;;4852968;29;20477;-79
2023/02/05 13:07:14;;;;;;;9.17;2.90;;;8.60;99.90;;;;;;4848133;29;20488;-81
2023/02/05 13:10:12;;;;;;;5.20;3.03;;;8.60;99.90;;;;;;4846699;29;20513;-81
2023/02/05 13:12:44;;;;;;;3.80;2.90;;;8.60;99.90;;;;;;4844293;29;20592;-80
2023/02/05 13:15:33;;;;;;;6.07;3.40;;;8.60;99.90;;;;;;4844052;29;20457;-83
2023/02/05 13:18:21;;;;;;;6.00;3.30;;;8.70;99.90;;;;;;4844669;29;20510;-81
2023/02/05 13:29:32;;;;;;;3.70;2.50;;;8.70;99.90;;;;;;4847036;29;20540;-79
2023/02/05 13:32:05;;;;;;;4.90;2.80;;;8.70;99.90;;;;;;4851111;29;20489;-79
2023/02/05 13:34:42;;;;;;;4.33;1.90;;;8.60;99.90;;;;;;4844743;29;20465;-79
2023/02/05 13:37:57;;;;;;;4.03;2.30;;;8.60;99.90;;;;;;4844605;29;21031;-80
2023/02/05 13:40:54;;;;;;;2.80;2.07;;;8.70;99.90;;;;;;4842352;29;20454;-80
2023/02/05 13:43:20;;;;;;;2.77;1.70;;;8.90;99.90;;;;;;4842381;29;21093;-80
2023/02/05 13:45:47;;;;;;;5.20;1.87;;;8.80;99.90;;;;;;4845001;29;20892;-81
2023/02/05 13:48:39;;;;;;;2.10;1.90;;;8.80;99.90;;;;;;4845667;29;20473;-81
2023/02/05 13:51:21;;;;;;;3.43;1.53;;;8.80;99.90;;;;;;4846033;29;20472;-80
2023/02/05 13:54:13;;;;;;;4.83;1.77;;;8.80;99.90;;;;;;4858213;29;20485;-80
2023/02/05 13:56:50;;;;;;;3.33;1.60;;;8.70;99.90;;;;;;4844274;29;20465;-80
2023/02/05 13:59:39;;;;;;;2.90;2.30;;;8.80;99.90;;;;;;4846623;29;20504;-80
2023/02/05 14:02:25;;;;;;;5.23;2.67;;;8.90;99.90;;;;;;4846806;29;21063;-80
2023/02/05 14:04:53;;;;;;;3.40;3.00;;;8.90;99.90;;;;;;4848562;29;20488;-81
2023/02/05 14:07:27;;;;;;;8.37;3.53;;;8.70;99.90;;;;;;4844713;29;20592;-80